sensor_id;sensor_type;location;lat;lon;timestamp;temperature;humidity
6486;DHT22;3276;48.490;9.222;2023-08-07T00:01:44;11.80;25.80
6486;DHT22;3276;48.490;9.222;2023-08-07T00:04:10;11.80;25.60
6486;DHT22;3276;48.490;9.222;2023-08-07T00:06:35;11.80;26.20
6486;DHT22;3276;48.490;9.222;2023-08-07T00:09:01;11.80;24.90
6486;DHT22;3276;48.490;9.222;2023-08-07T00:11:26;11.80;25.20
6486;DHT22;3276;48.490;9.222;2023-08-07T00:13:53;11.80;26.00
6486;DHT22;3276;48.490;9.222;2023-08-07T00:16:19;11.80;25.40
6486;DHT22;3276;48.490;9.222;2023-08-07T00:18:45;11.80;24.80
6486;DHT22;3276;48.490;9.222;2023-08-07T00:21:10;11.80;24.90
6486;DHT22;3276;48.490;9.222;2023-08-07T00:23:36;11.80;25.00
6486;DHT22;3276;48.490;9.222;2023-08-07T00:26:01;11.70;25.10
6486;DHT22;3276;48.490;9.222;2023-08-07T00:28:27;11.70;25.30
6486;DHT22;3276;48.490;9.222;2023-08-07T00:30:54;11.80;24.30
6486;DHT22;3276;48.490;9.222;2023-08-07T00:33:20;11.70;24.90
6486;DHT22;3276;48.490;9.222;2023-08-07T00:35:46;11.70;23.90
6486;DHT22;3276;48.490;9.222;2023-08-07T00:38:11;11.60;24.70
6486;DHT22;3276;48.490;9.222;2023-08-07T00:40:38;11.60;25.10
6486;DHT22;3276;48.490;9.222;2023-08-07T00:43:04;11.60;26.10
6486;DHT22;3276;48.490;9.222;2023-08-07T00:45:30;11.50;26.40
6486;DHT22;3276;48.490;9.222;2023-08-07T00:47:57;11.50;25.70
6486;DHT22;3276;48.490;9.222;2023-08-07T00:50:23;11.50;26.20
6486;DHT22;3276;48.490;9.222;2023-08-07T00:52:49;11.50;26.10
6486;DHT22;3276;48.490;9.222;2023-08-07T00:55:14;11.50;27.00
6486;DHT22;3276;48.490;9.222;2023-08-07T00:57:40;11.50;27.80
6486;DHT22;3276;48.490;9.222;2023-08-07T01:00:06;11.40;27.30
6486;DHT22;3276;48.490;9.222;2023-08-07T01:02:33;11.40;27.70
6486;DHT22;3276;48.490;9.222;2023-08-07T01:04:58;11.30;27.00
6486;DHT22;3276;48.490;9.222;2023-08-07T01:07:24;11.30;27.60
6486;DHT22;3276;48.490;9.222;2023-08-07T01:09:50;11.30;27.30
6486;DHT22;3276;48.490;9.222;2023-08-07T01:12:19;11.30;27.60
6486;DHT22;3276;48.490;9.222;2023-08-07T01:17:46;11.20;27.90
6486;DHT22;3276;48.490;9.222;2023-08-07T01:20:12;11.20;28.50
6486;DHT22;3276;48.490;9.222;2023-08-07T01:22:38;11.20;27.80
6486;DHT22;3276;48.490;9.222;2023-08-07T01:25:03;11.20;28.20
6486;DHT22;3276;48.490;9.222;2023-08-07T01:27:35;11.20;27.70
6486;DHT22;3276;48.490;9.222;2023-08-07T01:33:04;11.20;28.10
6486;DHT22;3276;48.490;9.222;2023-08-07T01:35:35;11.10;28.50
6486;DHT22;3276;48.490;9.222;2023-08-07T01:38:03;11.00;28.70
6486;DHT22;3276;48.490;9.222;2023-08-07T01:40:30;11.00;29.30
6486;DHT22;3276;48.490;9.222;2023-08-07T01:42:56;11.00;29.20
6486;DHT22;3276;48.490;9.222;2023-08-07T01:45:26;11.00;29.20
6486;DHT22;3276;48.490;9.222;2023-08-07T01:47:52;11.00;29.70
6486;DHT22;3276;48.490;9.222;2023-08-07T01:50:22;11.00;30.10
6486;DHT22;3276;48.490;9.222;2023-08-07T01:52:48;10.90;30.20
6486;DHT22;3276;48.490;9.222;2023-08-07T01:55:15;10.90;30.40
6486;DHT22;3276;48.490;9.222;2023-08-07T01:57:40;10.90;30.80
6486;DHT22;3276;48.490;9.222;2023-08-07T02:00:06;10.90;30.90
6486;DHT22;3276;48.490;9.222;2023-08-07T02:02:33;10.90;30.90
6486;DHT22;3276;48.490;9.222;2023-08-07T02:04:59;10.80;31.10
6486;DHT22;3276;48.490;9.222;2023-08-07T02:07:25;10.80;31.70
6486;DHT22;3276;48.490;9.222;2023-08-07T02:09:50;10.80;31.70
6486;DHT22;3276;48.490;9.222;2023-08-07T02:12:16;10.70;31.60
6486;DHT22;3276;48.490;9.222;2023-08-07T02:14:41;10.80;31.60
6486;DHT22;3276;48.490;9.222;2023-08-07T02:17:07;10.70;31.50
6486;DHT22;3276;48.490;9.222;2023-08-07T02:19:32;10.80;30.80
6486;DHT22;3276;48.490;9.222;2023-08-07T02:21:58;10.80;31.30
6486;DHT22;3276;48.490;9.222;2023-08-07T02:24:23;10.90;30.40
6486;DHT22;3276;48.490;9.222;2023-08-07T02:26:49;10.90;30.00
6486;DHT22;3276;48.490;9.222;2023-08-07T02:29:14;11.00;30.20
6486;DHT22;3276;48.490;9.222;2023-08-07T02:31:40;11.10;28.80
6486;DHT22;3276;48.490;9.222;2023-08-07T02:34:05;11.10;28.60
6486;DHT22;3276;48.490;9.222;2023-08-07T02:36:31;11.10;27.50
6486;DHT22;3276;48.490;9.222;2023-08-07T02:38:56;11.10;27.50
6486;DHT22;3276;48.490;9.222;2023-08-07T02:41:22;11.10;27.50
6486;DHT22;3276;48.490;9.222;2023-08-07T02:43:47;11.00;27.70
6486;DHT22;3276;48.490;9.222;2023-08-07T02:46:13;11.00;27.20
6486;DHT22;3276;48.490;9.222;2023-08-07T02:48:38;11.00;27.40
6486;DHT22;3276;48.490;9.222;2023-08-07T02:51:05;10.90;27.00
6486;DHT22;3276;48.490;9.222;2023-08-07T02:53:31;10.90;27.10
6486;DHT22;3276;48.490;9.222;2023-08-07T02:55:56;10.90;27.30
6486;DHT22;3276;48.490;9.222;2023-08-07T02:58:22;10.90;27.20
6486;DHT22;3276;48.490;9.222;2023-08-07T03:00:48;11.00;26.50
6486;DHT22;3276;48.490;9.222;2023-08-07T03:03:13;11.00;25.70
6486;DHT22;3276;48.490;9.222;2023-08-07T03:05:38;11.10;24.90
6486;DHT22;3276;48.490;9.222;2023-08-07T03:08:04;11.10;25.20
6486;DHT22;3276;48.490;9.222;2023-08-07T03:10:29;11.10;25.20
6486;DHT22;3276;48.490;9.222;2023-08-07T03:12:55;11.20;24.00
6486;DHT22;3276;48.490;9.222;2023-08-07T03:15:20;11.20;24.00
6486;DHT22;3276;48.490;9.222;2023-08-07T03:17:46;11.30;23.50
6486;DHT22;3276;48.490;9.222;2023-08-07T03:20:12;11.30;23.50
6486;DHT22;3276;48.490;9.222;2023-08-07T03:22:37;11.30;24.30
6486;DHT22;3276;48.490;9.222;2023-08-07T03:25:03;11.30;23.50
6486;DHT22;3276;48.490;9.222;2023-08-07T03:27:29;11.30;23.50
6486;DHT22;3276;48.490;9.222;2023-08-07T03:29:54;11.30;23.50
6486;DHT22;3276;48.490;9.222;2023-08-07T03:32:20;11.30;23.50
6486;DHT22;3276;48.490;9.222;2023-08-07T03:34:45;11.30;23.50
6486;DHT22;3276;48.490;9.222;2023-08-07T03:37:11;11.20;23.30
6486;DHT22;3276;48.490;9.222;2023-08-07T03:39:36;11.10;23.40
6486;DHT22;3276;48.490;9.222;2023-08-07T03:42:02;11.00;23.30
6486;DHT22;3276;48.490;9.222;2023-08-07T03:44:27;10.90;24.20
6486;DHT22;3276;48.490;9.222;2023-08-07T03:46:53;10.90;24.70
6486;DHT22;3276;48.490;9.222;2023-08-07T03:49:21;10.80;24.60
6486;DHT22;3276;48.490;9.222;2023-08-07T03:51:48;10.80;24.90
6486;DHT22;3276;48.490;9.222;2023-08-07T03:54:14;10.70;25.00
6486;DHT22;3276;48.490;9.222;2023-08-07T03:56:40;10.70;25.60
6486;DHT22;3276;48.490;9.222;2023-08-07T03:59:06;10.70;25.50
6486;DHT22;3276;48.490;9.222;2023-08-07T04:01:32;10.70;25.30
6486;DHT22;3276;48.490;9.222;2023-08-07T04:03:57;10.70;25.80
6486;DHT22;3276;48.490;9.222;2023-08-07T04:06:23;10.70;25.90
6486;DHT22;3276;48.490;9.222;2023-08-07T04:08:48;10.70;25.30
6486;DHT22;3276;48.490;9.222;2023-08-07T04:11:14;10.70;25.60
6486;DHT22;3276;48.490;9.222;2023-08-07T04:13:39;10.70;26.30
6486;DHT22;3276;48.490;9.222;2023-08-07T04:16:05;10.70;25.20
6486;DHT22;3276;48.490;9.222;2023-08-07T04:18:31;10.80;25.60
6486;DHT22;3276;48.490;9.222;2023-08-07T04:20:58;10.90;25.00
6486;DHT22;3276;48.490;9.222;2023-08-07T04:23:23;11.00;24.90
6486;DHT22;3276;48.490;9.222;2023-08-07T04:25:50;11.00;23.80
6486;DHT22;3276;48.490;9.222;2023-08-07T04:28:16;11.10;24.30
6486;DHT22;3276;48.490;9.222;2023-08-07T04:30:42;11.20;22.40
6486;DHT22;3276;48.490;9.222;2023-08-07T04:33:08;11.20;23.40
6486;DHT22;3276;48.490;9.222;2023-08-07T04:35:34;11.20;22.10
6486;DHT22;3276;48.490;9.222;2023-08-07T04:38:00;11.30;21.80
6486;DHT22;3276;48.490;9.222;2023-08-07T04:40:26;11.30;22.00
6486;DHT22;3276;48.490;9.222;2023-08-07T04:42:52;11.30;21.70
6486;DHT22;3276;48.490;9.222;2023-08-07T04:45:17;11.30;21.30
6486;DHT22;3276;48.490;9.222;2023-08-07T04:47:43;11.20;21.20
6486;DHT22;3276;48.490;9.222;2023-08-07T04:50:09;11.20;22.00
6486;DHT22;3276;48.490;9.222;2023-08-07T04:52:35;11.10;21.30
6486;DHT22;3276;48.490;9.222;2023-08-07T04:55:00;11.10;21.70
6486;DHT22;3276;48.490;9.222;2023-08-07T04:57:26;11.10;21.60
6486;DHT22;3276;48.490;9.222;2023-08-07T04:59:52;11.10;22.50
6486;DHT22;3276;48.490;9.222;2023-08-07T05:02:18;11.00;22.30
6486;DHT22;3276;48.490;9.222;2023-08-07T05:04:44;11.10;22.30
6486;DHT22;3276;48.490;9.222;2023-08-07T05:07:09;11.10;22.60
6486;DHT22;3276;48.490;9.222;2023-08-07T05:09:35;11.10;22.90
6486;DHT22;3276;48.490;9.222;2023-08-07T05:12:01;11.10;23.30
6486;DHT22;3276;48.490;9.222;2023-08-07T05:14:27;11.10;22.40
6486;DHT22;3276;48.490;9.222;2023-08-07T05:16:52;11.20;22.50
6486;DHT22;3276;48.490;9.222;2023-08-07T05:19:18;11.20;22.90
6486;DHT22;3276;48.490;9.222;2023-08-07T05:21:43;11.30;22.20
6486;DHT22;3276;48.490;9.222;2023-08-07T05:24:09;11.40;21.50
6486;DHT22;3276;48.490;9.222;2023-08-07T05:26:34;11.40;21.60
6486;DHT22;3276;48.490;9.222;2023-08-07T05:29:00;11.50;21.80
6486;DHT22;3276;48.490;9.222;2023-08-07T05:31:25;11.60;21.10
6486;DHT22;3276;48.490;9.222;2023-08-07T05:33:51;11.70;20.70
6486;DHT22;3276;48.490;9.222;2023-08-07T05:36:16;11.80;19.60
6486;DHT22;3276;48.490;9.222;2023-08-07T05:38:42;11.90;18.90
6486;DHT22;3276;48.490;9.222;2023-08-07T05:41:09;12.00;18.30
6486;DHT22;3276;48.490;9.222;2023-08-07T05:43:35;12.20;17.20
6486;DHT22;3276;48.490;9.222;2023-08-07T05:46:00;12.30;16.70
6486;DHT22;3276;48.490;9.222;2023-08-07T05:48:26;12.40;15.70
6486;DHT22;3276;48.490;9.222;2023-08-07T05:50:52;12.40;15.70
6486;DHT22;3276;48.490;9.222;2023-08-07T05:53:18;12.30;16.20
6486;DHT22;3276;48.490;9.222;2023-08-07T05:55:43;12.40;16.80
6486;DHT22;3276;48.490;9.222;2023-08-07T05:58:09;12.50;15.80
6486;DHT22;3276;48.490;9.222;2023-08-07T06:00:34;12.70;15.90
6486;DHT22;3276;48.490;9.222;2023-08-07T06:03:00;12.90;15.20
6486;DHT22;3276;48.490;9.222;2023-08-07T06:05:26;13.10;13.50
6486;DHT22;3276;48.490;9.222;2023-08-07T06:07:51;13.10;13.40
6486;DHT22;3276;48.490;9.222;2023-08-07T06:10:17;13.10;11.80
6486;DHT22;3276;48.490;9.222;2023-08-07T06:12:42;13.00;13.20
6486;DHT22;3276;48.490;9.222;2023-08-07T06:15:08;13.00;12.80
6486;DHT22;3276;48.490;9.222;2023-08-07T06:17:34;13.20;13.50
6486;DHT22;3276;48.490;9.222;2023-08-07T06:20:00;13.30;11.90
6486;DHT22;3276;48.490;9.222;2023-08-07T06:22:25;13.40;11.00
6486;DHT22;3276;48.490;9.222;2023-08-07T06:24:51;13.30;10.90
6486;DHT22;3276;48.490;9.222;2023-08-07T06:27:16;13.30;11.10
6486;DHT22;3276;48.490;9.222;2023-08-07T06:29:42;13.40;12.00
6486;DHT22;3276;48.490;9.222;2023-08-07T06:32:07;13.40;11.10
6486;DHT22;3276;48.490;9.222;2023-08-07T06:34:35;13.50;11.10
6486;DHT22;3276;48.490;9.222;2023-08-07T06:37:00;13.60;9.90
6486;DHT22;3276;48.490;9.222;2023-08-07T06:39:26;13.70;9.70
6486;DHT22;3276;48.490;9.222;2023-08-07T06:41:51;13.70;9.80
6486;DHT22;3276;48.490;9.222;2023-08-07T06:44:17;13.60;10.70
6486;DHT22;3276;48.490;9.222;2023-08-07T06:46:42;13.70;10.40
6486;DHT22;3276;48.490;9.222;2023-08-07T06:49:08;13.80;9.60
6486;DHT22;3276;48.490;9.222;2023-08-07T06:51:34;13.80;10.50
6486;DHT22;3276;48.490;9.222;2023-08-07T06:53:59;13.90;9.40
6486;DHT22;3276;48.490;9.222;2023-08-07T06:56:25;13.90;9.70
6486;DHT22;3276;48.490;9.222;2023-08-07T06:58:50;14.00;9.40
6486;DHT22;3276;48.490;9.222;2023-08-07T07:01:16;14.10;8.90
6486;DHT22;3276;48.490;9.222;2023-08-07T07:03:41;14.30;9.50
6486;DHT22;3276;48.490;9.222;2023-08-07T07:06:07;14.40;8.40
6486;DHT22;3276;48.490;9.222;2023-08-07T07:08:32;15.10;7.60
6486;DHT22;3276;48.490;9.222;2023-08-07T07:10:58;15.20;5.80
6486;DHT22;3276;48.490;9.222;2023-08-07T07:13:24;15.60;4.60
6486;DHT22;3276;48.490;9.222;2023-08-07T07:15:53;15.70;3.90
6486;DHT22;3276;48.490;9.222;2023-08-07T07:18:19;16.50;1.20
6486;DHT22;3276;48.490;9.222;2023-08-07T07:20:45;16.10;1.20
6486;DHT22;3276;48.490;9.222;2023-08-07T07:23:10;16.00;2.50
6486;DHT22;3276;48.490;9.222;2023-08-07T07:25:36;16.00;3.00
6486;DHT22;3276;48.490;9.222;2023-08-07T07:28:01;16.50;1.40
6486;DHT22;3276;48.490;9.222;2023-08-07T07:30:27;17.60;1.00
6486;DHT22;3276;48.490;9.222;2023-08-07T07:32:52;18.00;1.00
6486;DHT22;3276;48.490;9.222;2023-08-07T07:35:18;19.30;1.00
6486;DHT22;3276;48.490;9.222;2023-08-07T07:37:43;18.70;1.00
6486;DHT22;3276;48.490;9.222;2023-08-07T07:40:10;18.40;1.00
6486;DHT22;3276;48.490;9.222;2023-08-07T07:42:35;17.70;1.00
6486;DHT22;3276;48.490;9.222;2023-08-07T07:45:01;17.60;1.00
6486;DHT22;3276;48.490;9.222;2023-08-07T07:47:26;18.00;1.00
6486;DHT22;3276;48.490;9.222;2023-08-07T07:50:05;18.40;1.00
6486;DHT22;3276;48.490;9.222;2023-08-07T07:52:31;18.00;1.00
6486;DHT22;3276;48.490;9.222;2023-08-07T07:54:57;17.80;1.00
6486;DHT22;3276;48.490;9.222;2023-08-07T07:57:22;17.20;1.00
6486;DHT22;3276;48.490;9.222;2023-08-07T07:59:48;17.60;1.00
6486;DHT22;3276;48.490;9.222;2023-08-07T08:02:14;17.90;1.00
6486;DHT22;3276;48.490;9.222;2023-08-07T08:04:41;17.40;1.00
6486;DHT22;3276;48.490;9.222;2023-08-07T08:07:07;16.80;1.00
6486;DHT22;3276;48.490;9.222;2023-08-07T08:09:32;17.40;1.00
6486;DHT22;3276;48.490;9.222;2023-08-07T08:11:58;19.60;1.00
6486;DHT22;3276;48.490;9.222;2023-08-07T08:14:24;19.70;1.00
6486;DHT22;3276;48.490;9.222;2023-08-07T08:16:49;19.90;1.00
6486;DHT22;3276;48.490;9.222;2023-08-07T08:19:15;19.60;1.00
6486;DHT22;3276;48.490;9.222;2023-08-07T08:21:42;20.10;1.00
6486;DHT22;3276;48.490;9.222;2023-08-07T08:24:07;20.50;1.00
6486;DHT22;3276;48.490;9.222;2023-08-07T08:26:34;21.40;1.00
6486;DHT22;3276;48.490;9.222;2023-08-07T08:29:01;19.80;1.00
6486;DHT22;3276;48.490;9.222;2023-08-07T08:31:27;19.90;1.00
6486;DHT22;3276;48.490;9.222;2023-08-07T08:33:53;19.90;1.00
6486;DHT22;3276;48.490;9.222;2023-08-07T08:36:18;20.50;1.00
6486;DHT22;3276;48.490;9.222;2023-08-07T08:38:44;22.00;1.00
6486;DHT22;3276;48.490;9.222;2023-08-07T08:41:12;23.60;1.00
6486;DHT22;3276;48.490;9.222;2023-08-07T08:43:38;24.10;1.00
6486;DHT22;3276;48.490;9.222;2023-08-07T08:46:05;22.30;1.00
6486;DHT22;3276;48.490;9.222;2023-08-07T08:48:34;21.70;1.00
6486;DHT22;3276;48.490;9.222;2023-08-07T08:51:01;21.20;1.00
6486;DHT22;3276;48.490;9.222;2023-08-07T08:53:27;23.20;1.00
6486;DHT22;3276;48.490;9.222;2023-08-07T08:55:53;24.10;1.00
6486;DHT22;3276;48.490;9.222;2023-08-07T08:58:20;22.30;1.00
6486;DHT22;3276;48.490;9.222;2023-08-07T09:00:46;23.30;1.00
6486;DHT22;3276;48.490;9.222;2023-08-07T09:03:13;22.40;1.00
6486;DHT22;3276;48.490;9.222;2023-08-07T09:05:39;23.20;1.00
6486;DHT22;3276;48.490;9.222;2023-08-07T09:08:05;23.80;1.00
6486;DHT22;3276;48.490;9.222;2023-08-07T09:10:32;24.00;1.00
6486;DHT22;3276;48.490;9.222;2023-08-07T09:13:03;22.80;1.00
6486;DHT22;3276;48.490;9.222;2023-08-07T09:15:32;21.00;1.00
6486;DHT22;3276;48.490;9.222;2023-08-07T09:17:58;20.20;1.00
6486;DHT22;3276;48.490;9.222;2023-08-07T09:20:25;19.50;1.00
6486;DHT22;3276;48.490;9.222;2023-08-07T09:22:51;19.20;1.00
6486;DHT22;3276;48.490;9.222;2023-08-07T09:25:27;19.40;1.00
6486;DHT22;3276;48.490;9.222;2023-08-07T09:27:55;19.10;1.00
6486;DHT22;3276;48.490;9.222;2023-08-07T09:30:26;19.30;1.00
6486;DHT22;3276;48.490;9.222;2023-08-07T09:32:52;19.10;1.00
6486;DHT22;3276;48.490;9.222;2023-08-07T09:35:21;19.10;1.00
6486;DHT22;3276;48.490;9.222;2023-08-07T09:37:46;19.20;1.00
6486;DHT22;3276;48.490;9.222;2023-08-07T09:40:12;19.30;1.00
6486;DHT22;3276;48.490;9.222;2023-08-07T09:42:40;18.90;1.00
6486;DHT22;3276;48.490;9.222;2023-08-07T09:45:25;18.90;1.00
6486;DHT22;3276;48.490;9.222;2023-08-07T09:48:01;19.00;1.00
6486;DHT22;3276;48.490;9.222;2023-08-07T09:50:28;19.20;1.00
6486;DHT22;3276;48.490;9.222;2023-08-07T09:52:54;19.30;1.00
6486;DHT22;3276;48.490;9.222;2023-08-07T09:55:21;19.40;1.00
6486;DHT22;3276;48.490;9.222;2023-08-07T09:57:48;19.40;1.00
6486;DHT22;3276;48.490;9.222;2023-08-07T10:00:14;19.50;1.00
6486;DHT22;3276;48.490;9.222;2023-08-07T10:02:44;19.50;1.00
6486;DHT22;3276;48.490;9.222;2023-08-07T10:05:10;19.70;1.00
6486;DHT22;3276;48.490;9.222;2023-08-07T10:07:37;20.00;1.00
6486;DHT22;3276;48.490;9.222;2023-08-07T10:10:04;20.20;1.00
6486;DHT22;3276;48.490;9.222;2023-08-07T10:12:30;19.50;1.00
6486;DHT22;3276;48.490;9.222;2023-08-07T10:14:56;19.30;1.00
6486;DHT22;3276;48.490;9.222;2023-08-07T10:17:23;19.40;1.00
6486;DHT22;3276;48.490;9.222;2023-08-07T10:19:50;19.40;1.00
6486;DHT22;3276;48.490;9.222;2023-08-07T10:22:18;19.30;1.00
6486;DHT22;3276;48.490;9.222;2023-08-07T10:24:49;19.40;1.00
6486;DHT22;3276;48.490;9.222;2023-08-07T10:27:17;19.50;1.00
6486;DHT22;3276;48.490;9.222;2023-08-07T10:29:48;19.70;1.00
6486;DHT22;3276;48.490;9.222;2023-08-07T10:32:17;20.10;1.00
6486;DHT22;3276;48.490;9.222;2023-08-07T10:34:49;20.20;1.00
6486;DHT22;3276;48.490;9.222;2023-08-07T10:40:06;19.70;1.00
6486;DHT22;3276;48.490;9.222;2023-08-07T10:45:20;19.90;1.00
6486;DHT22;3276;48.490;9.222;2023-08-07T10:48:17;19.90;1.00
6486;DHT22;3276;48.490;9.222;2023-08-07T10:55:54;20.30;1.00
6486;DHT22;3276;48.490;9.222;2023-08-07T10:58:30;20.30;1.00
6486;DHT22;3276;48.490;9.222;2023-08-07T11:01:18;20.30;1.00
6486;DHT22;3276;48.490;9.222;2023-08-07T11:03:58;19.80;1.00
6486;DHT22;3276;48.490;9.222;2023-08-07T11:06:28;19.60;1.00
6486;DHT22;3276;48.490;9.222;2023-08-07T11:08:56;19.60;1.00
6486;DHT22;3276;48.490;9.222;2023-08-07T11:11:22;19.80;1.00
6486;DHT22;3276;48.490;9.222;2023-08-07T11:13:47;19.90;1.00
6486;DHT22;3276;48.490;9.222;2023-08-07T11:16:13;20.00;1.00
6486;DHT22;3276;48.490;9.222;2023-08-07T11:18:39;20.10;1.00
6486;DHT22;3276;48.490;9.222;2023-08-07T11:21:08;20.20;1.00
6486;DHT22;3276;48.490;9.222;2023-08-07T11:23:36;20.40;1.00
6486;DHT22;3276;48.490;9.222;2023-08-07T11:26:02;20.60;1.00
6486;DHT22;3276;48.490;9.222;2023-08-07T11:28:28;20.30;1.00
6486;DHT22;3276;48.490;9.222;2023-08-07T11:30:54;20.60;1.00
6486;DHT22;3276;48.490;9.222;2023-08-07T11:33:22;20.70;1.00
6486;DHT22;3276;48.490;9.222;2023-08-07T11:35:48;20.80;1.00
6486;DHT22;3276;48.490;9.222;2023-08-07T11:38:34;20.50;1.00
6486;DHT22;3276;48.490;9.222;2023-08-07T11:41:01;20.40;1.00
6486;DHT22;3276;48.490;9.222;2023-08-07T11:43:29;19.70;1.00
6486;DHT22;3276;48.490;9.222;2023-08-07T11:45:56;19.40;1.00
6486;DHT22;3276;48.490;9.222;2023-08-07T11:48:26;19.00;1.00
6486;DHT22;3276;48.490;9.222;2023-08-07T11:50:53;18.70;1.00
6486;DHT22;3276;48.490;9.222;2023-08-07T11:53:23;18.60;1.00
6486;DHT22;3276;48.490;9.222;2023-08-07T11:55:56;18.60;1.00
6486;DHT22;3276;48.490;9.222;2023-08-07T11:58:23;18.30;1.00
6486;DHT22;3276;48.490;9.222;2023-08-07T12:00:49;18.30;1.00
6486;DHT22;3276;48.490;9.222;2023-08-07T12:08:19;18.70;1.00
6486;DHT22;3276;48.490;9.222;2023-08-07T12:10:53;19.20;1.00
6486;DHT22;3276;48.490;9.222;2023-08-07T12:13:23;19.70;1.00
6486;DHT22;3276;48.490;9.222;2023-08-07T12:15:52;19.60;1.00
6486;DHT22;3276;48.490;9.222;2023-08-07T12:18:19;18.90;1.00
6486;DHT22;3276;48.490;9.222;2023-08-07T12:20:46;18.20;1.00
6486;DHT22;3276;48.490;9.222;2023-08-07T12:23:15;17.70;1.00
6486;DHT22;3276;48.490;9.222;2023-08-07T12:25:44;17.50;1.00
6486;DHT22;3276;48.490;9.222;2023-08-07T12:28:10;17.30;1.00
6486;DHT22;3276;48.490;9.222;2023-08-07T12:30:37;17.00;1.00
6486;DHT22;3276;48.490;9.222;2023-08-07T12:33:03;16.90;1.00
6486;DHT22;3276;48.490;9.222;2023-08-07T12:35:30;16.80;1.00
6486;DHT22;3276;48.490;9.222;2023-08-07T12:37:56;16.80;1.00
6486;DHT22;3276;48.490;9.222;2023-08-07T12:40:21;16.80;1.00
6486;DHT22;3276;48.490;9.222;2023-08-07T12:42:51;16.70;1.00
6486;DHT22;3276;48.490;9.222;2023-08-07T12:45:17;16.80;1.00
6486;DHT22;3276;48.490;9.222;2023-08-07T12:47:44;16.90;1.00
6486;DHT22;3276;48.490;9.222;2023-08-07T12:50:10;17.10;1.00
6486;DHT22;3276;48.490;9.222;2023-08-07T12:52:36;17.20;1.00
6486;DHT22;3276;48.490;9.222;2023-08-07T12:55:02;17.50;1.00
6486;DHT22;3276;48.490;9.222;2023-08-07T12:57:27;17.90;1.00
6486;DHT22;3276;48.490;9.222;2023-08-07T12:59:53;18.10;1.00
6486;DHT22;3276;48.490;9.222;2023-08-07T13:02:18;18.10;1.00
6486;DHT22;3276;48.490;9.222;2023-08-07T13:04:44;18.20;1.00
6486;DHT22;3276;48.490;9.222;2023-08-07T13:07:09;17.80;1.00
6486;DHT22;3276;48.490;9.222;2023-08-07T13:09:35;17.60;1.00
6486;DHT22;3276;48.490;9.222;2023-08-07T13:12:00;17.40;1.00
6486;DHT22;3276;48.490;9.222;2023-08-07T13:14:26;17.50;1.00
6486;DHT22;3276;48.490;9.222;2023-08-07T13:16:51;17.70;1.00
6486;DHT22;3276;48.490;9.222;2023-08-07T13:19:17;17.70;1.00
6486;DHT22;3276;48.490;9.222;2023-08-07T13:21:43;17.60;1.00
6486;DHT22;3276;48.490;9.222;2023-08-07T13:24:08;17.50;1.00
6486;DHT22;3276;48.490;9.222;2023-08-07T13:26:34;17.40;1.00
6486;DHT22;3276;48.490;9.222;2023-08-07T13:29:00;17.70;1.00
6486;DHT22;3276;48.490;9.222;2023-08-07T13:31:25;17.90;1.00
6486;DHT22;3276;48.490;9.222;2023-08-07T13:33:51;18.20;1.00
6486;DHT22;3276;48.490;9.222;2023-08-07T13:36:16;18.50;1.00
6486;DHT22;3276;48.490;9.222;2023-08-07T13:38:42;18.80;1.00
6486;DHT22;3276;48.490;9.222;2023-08-07T13:41:07;19.40;1.00
6486;DHT22;3276;48.490;9.222;2023-08-07T13:43:33;19.50;1.00
6486;DHT22;3276;48.490;9.222;2023-08-07T13:45:58;19.70;1.00
6486;DHT22;3276;48.490;9.222;2023-08-07T13:48:24;19.80;1.00
6486;DHT22;3276;48.490;9.222;2023-08-07T13:50:52;19.60;1.00
6486;DHT22;3276;48.490;9.222;2023-08-07T13:53:18;19.20;1.00
6486;DHT22;3276;48.490;9.222;2023-08-07T13:55:45;18.90;1.00
6486;DHT22;3276;48.490;9.222;2023-08-07T13:58:12;18.40;1.00
6486;DHT22;3276;48.490;9.222;2023-08-07T14:00:40;18.40;1.00
6486;DHT22;3276;48.490;9.222;2023-08-07T14:03:07;18.40;1.00
6486;DHT22;3276;48.490;9.222;2023-08-07T14:05:34;18.40;1.00
6486;DHT22;3276;48.490;9.222;2023-08-07T14:07:59;18.40;1.00
6486;DHT22;3276;48.490;9.222;2023-08-07T14:10:25;18.40;1.00
6486;DHT22;3276;48.490;9.222;2023-08-07T14:12:50;18.40;1.00
6486;DHT22;3276;48.490;9.222;2023-08-07T14:15:16;18.60;1.00
6486;DHT22;3276;48.490;9.222;2023-08-07T14:17:42;18.90;1.00
6486;DHT22;3276;48.490;9.222;2023-08-07T14:20:08;18.60;1.00
6486;DHT22;3276;48.490;9.222;2023-08-07T14:22:34;18.60;1.00
6486;DHT22;3276;48.490;9.222;2023-08-07T14:25:02;18.90;1.00
6486;DHT22;3276;48.490;9.222;2023-08-07T14:27:28;19.00;1.00
6486;DHT22;3276;48.490;9.222;2023-08-07T14:29:54;19.30;1.00
6486;DHT22;3276;48.490;9.222;2023-08-07T14:32:19;19.60;1.00
6486;DHT22;3276;48.490;9.222;2023-08-07T14:34:45;19.70;1.00
6486;DHT22;3276;48.490;9.222;2023-08-07T14:37:13;19.70;1.00
6486;DHT22;3276;48.490;9.222;2023-08-07T14:39:38;19.40;1.00
6486;DHT22;3276;48.490;9.222;2023-08-07T14:42:04;19.50;1.00
6486;DHT22;3276;48.490;9.222;2023-08-07T14:44:30;19.60;1.00
6486;DHT22;3276;48.490;9.222;2023-08-07T14:46:55;19.70;1.00
6486;DHT22;3276;48.490;9.222;2023-08-07T14:49:23;19.40;1.00
6486;DHT22;3276;48.490;9.222;2023-08-07T14:51:49;19.30;1.00
6486;DHT22;3276;48.490;9.222;2023-08-07T14:54:15;19.40;1.00
6486;DHT22;3276;48.490;9.222;2023-08-07T14:56:41;19.20;1.00
6486;DHT22;3276;48.490;9.222;2023-08-07T14:59:06;19.20;1.00
6486;DHT22;3276;48.490;9.222;2023-08-07T15:01:32;18.90;1.00
6486;DHT22;3276;48.490;9.222;2023-08-07T15:03:57;18.60;1.00
6486;DHT22;3276;48.490;9.222;2023-08-07T15:06:23;18.40;1.00
6486;DHT22;3276;48.490;9.222;2023-08-07T15:08:49;18.30;1.00
6486;DHT22;3276;48.490;9.222;2023-08-07T15:11:14;18.10;1.00
6486;DHT22;3276;48.490;9.222;2023-08-07T15:13:40;18.20;1.00
6486;DHT22;3276;48.490;9.222;2023-08-07T15:16:06;18.00;1.00
6486;DHT22;3276;48.490;9.222;2023-08-07T15:18:31;17.90;1.00
6486;DHT22;3276;48.490;9.222;2023-08-07T15:20:59;17.80;1.00
6486;DHT22;3276;48.490;9.222;2023-08-07T15:23:26;17.80;1.00
6486;DHT22;3276;48.490;9.222;2023-08-07T15:25:52;17.70;1.00
6486;DHT22;3276;48.490;9.222;2023-08-07T15:28:17;17.70;1.00
6486;DHT22;3276;48.490;9.222;2023-08-07T15:30:50;17.80;1.00
6486;DHT22;3276;48.490;9.222;2023-08-07T15:33:17;17.80;1.00
6486;DHT22;3276;48.490;9.222;2023-08-07T15:35:43;17.80;1.00
6486;DHT22;3276;48.490;9.222;2023-08-07T15:38:09;17.90;1.00
6486;DHT22;3276;48.490;9.222;2023-08-07T15:40:40;17.90;1.00
6486;DHT22;3276;48.490;9.222;2023-08-07T15:43:07;18.20;1.00
6486;DHT22;3276;48.490;9.222;2023-08-07T15:45:33;18.40;1.00
6486;DHT22;3276;48.490;9.222;2023-08-07T15:47:59;18.50;1.00
6486;DHT22;3276;48.490;9.222;2023-08-07T15:50:24;18.70;1.00
6486;DHT22;3276;48.490;9.222;2023-08-07T15:52:50;18.90;1.00
6486;DHT22;3276;48.490;9.222;2023-08-07T15:55:15;18.90;1.00
6486;DHT22;3276;48.490;9.222;2023-08-07T15:57:41;18.80;1.00
6486;DHT22;3276;48.490;9.222;2023-08-07T16:00:07;18.90;1.00
6486;DHT22;3276;48.490;9.222;2023-08-07T16:02:33;19.10;1.00
6486;DHT22;3276;48.490;9.222;2023-08-07T16:04:58;19.20;1.00
6486;DHT22;3276;48.490;9.222;2023-08-07T16:07:24;19.30;1.00
6486;DHT22;3276;48.490;9.222;2023-08-07T16:09:50;19.50;1.00
6486;DHT22;3276;48.490;9.222;2023-08-07T16:12:15;19.60;1.00
6486;DHT22;3276;48.490;9.222;2023-08-07T16:14:43;19.80;1.00
6486;DHT22;3276;48.490;9.222;2023-08-07T16:17:08;20.10;1.00
6486;DHT22;3276;48.490;9.222;2023-08-07T16:19:34;20.20;1.00
6486;DHT22;3276;48.490;9.222;2023-08-07T16:22:00;20.10;1.00
6486;DHT22;3276;48.490;9.222;2023-08-07T16:24:25;19.50;1.00
6486;DHT22;3276;48.490;9.222;2023-08-07T16:26:51;19.00;1.00
6486;DHT22;3276;48.490;9.222;2023-08-07T16:29:17;18.90;1.00